sensor_id;sensor_type;location;lat;lon;timestamp;temperature;humidity
8896;DHT22;4484;48.928;10.066;2022-07-29T00:01:02;17.40;99.90
8896;DHT22;4484;48.928;10.066;2022-07-29T00:03:28;17.30;99.90
8896;DHT22;4484;48.928;10.066;2022-07-29T00:05:55;17.30;99.90
8896;DHT22;4484;48.928;10.066;2022-07-29T00:08:22;17.30;99.90
8896;DHT22;4484;48.928;10.066;2022-07-29T00:10:50;17.30;99.90
8896;DHT22;4484;48.928;10.066;2022-07-29T00:13:17;17.30;99.90
8896;DHT22;4484;48.928;10.066;2022-07-29T00:15:58;17.30;99.90
8896;DHT22;4484;48.928;10.066;2022-07-29T00:18:31;17.30;99.90
8896;DHT22;4484;48.928;10.066;2022-07-29T00:20:58;17.30;99.90
8896;DHT22;4484;48.928;10.066;2022-07-29T00:23:25;17.30;99.90
8896;DHT22;4484;48.928;10.066;2022-07-29T00:25:54;17.30;99.90
8896;DHT22;4484;48.928;10.066;2022-07-29T00:28:20;17.20;99.90
8896;DHT22;4484;48.928;10.066;2022-07-29T00:30:47;17.20;99.90
8896;DHT22;4484;48.928;10.066;2022-07-29T00:33:14;17.20;99.90
8896;DHT22;4484;48.928;10.066;2022-07-29T00:35:41;17.20;99.90
8896;DHT22;4484;48.928;10.066;2022-07-29T00:38:12;17.20;99.90
8896;DHT22;4484;48.928;10.066;2022-07-29T00:40:40;17.20;99.90
8896;DHT22;4484;48.928;10.066;2022-07-29T00:43:11;17.20;99.90
8896;DHT22;4484;48.928;10.066;2022-07-29T00:45:38;17.10;99.90
8896;DHT22;4484;48.928;10.066;2022-07-29T00:48:05;17.10;99.90
8896;DHT22;4484;48.928;10.066;2022-07-29T00:50:32;17.00;99.90
8896;DHT22;4484;48.928;10.066;2022-07-29T00:53:00;17.00;99.90
8896;DHT22;4484;48.928;10.066;2022-07-29T00:55:27;17.00;99.90
8896;DHT22;4484;48.928;10.066;2022-07-29T00:57:57;16.90;99.90
8896;DHT22;4484;48.928;10.066;2022-07-29T01:00:27;16.90;99.90
8896;DHT22;4484;48.928;10.066;2022-07-29T01:02:54;16.90;99.90
8896;DHT22;4484;48.928;10.066;2022-07-29T01:05:24;16.80;99.90
8896;DHT22;4484;48.928;10.066;2022-07-29T01:08:12;16.80;99.90
8896;DHT22;4484;48.928;10.066;2022-07-29T01:10:40;16.80;99.90
8896;DHT22;4484;48.928;10.066;2022-07-29T01:13:09;16.70;99.90
8896;DHT22;4484;48.928;10.066;2022-07-29T01:15:42;16.70;99.90
8896;DHT22;4484;48.928;10.066;2022-07-29T01:18:30;16.70;99.90
8896;DHT22;4484;48.928;10.066;2022-07-29T01:21:24;16.70;99.90
8896;DHT22;4484;48.928;10.066;2022-07-29T01:29:57;16.60;99.90
8896;DHT22;4484;48.928;10.066;2022-07-29T01:32:32;16.60;99.90
8896;DHT22;4484;48.928;10.066;2022-07-29T01:37:45;16.60;99.90
8896;DHT22;4484;48.928;10.066;2022-07-29T01:40:20;16.60;99.90
8896;DHT22;4484;48.928;10.066;2022-07-29T01:43:00;16.60;99.90
8896;DHT22;4484;48.928;10.066;2022-07-29T01:45:38;16.60;99.90
8896;DHT22;4484;48.928;10.066;2022-07-29T01:48:13;16.60;99.90
8896;DHT22;4484;48.928;10.066;2022-07-29T01:51:07;16.60;99.90
8896;DHT22;4484;48.928;10.066;2022-07-29T01:53:50;16.60;99.90
8896;DHT22;4484;48.928;10.066;2022-07-29T01:56:19;16.60;99.90
8896;DHT22;4484;48.928;10.066;2022-07-29T01:58:48;16.60;99.90
8896;DHT22;4484;48.928;10.066;2022-07-29T02:01:16;16.60;99.90
8896;DHT22;4484;48.928;10.066;2022-07-29T02:03:45;16.60;99.90
8896;DHT22;4484;48.928;10.066;2022-07-29T02:06:17;16.60;99.90
8896;DHT22;4484;48.928;10.066;2022-07-29T02:08:45;16.60;99.90
8896;DHT22;4484;48.928;10.066;2022-07-29T02:11:13;16.60;99.90
8896;DHT22;4484;48.928;10.066;2022-07-29T02:13:41;16.60;99.90
8896;DHT22;4484;48.928;10.066;2022-07-29T02:16:09;16.60;99.90
8896;DHT22;4484;48.928;10.066;2022-07-29T02:18:39;16.60;99.90
8896;DHT22;4484;48.928;10.066;2022-07-29T02:21:08;16.60;99.90
8896;DHT22;4484;48.928;10.066;2022-07-29T02:23:42;16.60;99.90
8896;DHT22;4484;48.928;10.066;2022-07-29T02:26:19;16.50;99.90
8896;DHT22;4484;48.928;10.066;2022-07-29T02:28:48;16.50;99.90
8896;DHT22;4484;48.928;10.066;2022-07-29T02:31:19;16.50;99.90
8896;DHT22;4484;48.928;10.066;2022-07-29T02:33:48;16.50;99.90
8896;DHT22;4484;48.928;10.066;2022-07-29T02:36:16;16.50;99.90
8896;DHT22;4484;48.928;10.066;2022-07-29T02:38:44;16.50;99.90
8896;DHT22;4484;48.928;10.066;2022-07-29T02:41:22;16.50;99.90
8896;DHT22;4484;48.928;10.066;2022-07-29T02:43:53;16.50;99.90
8896;DHT22;4484;48.928;10.066;2022-07-29T02:46:27;16.50;99.90
8896;DHT22;4484;48.928;10.066;2022-07-29T02:49:02;16.50;99.90
8896;DHT22;4484;48.928;10.066;2022-07-29T02:51:41;16.50;99.90
8896;DHT22;4484;48.928;10.066;2022-07-29T02:54:19;16.50;99.90
8896;DHT22;4484;48.928;10.066;2022-07-29T02:56:47;16.50;99.90
8896;DHT22;4484;48.928;10.066;2022-07-29T02:59:21;16.50;99.90
8896;DHT22;4484;48.928;10.066;2022-07-29T03:01:48;16.50;99.90
8896;DHT22;4484;48.928;10.066;2022-07-29T03:04:17;16.60;99.90
8896;DHT22;4484;48.928;10.066;2022-07-29T03:06:48;16.60;99.90
8896;DHT22;4484;48.928;10.066;2022-07-29T03:09:16;16.50;99.90
8896;DHT22;4484;48.928;10.066;2022-07-29T03:11:44;16.50;99.90
8896;DHT22;4484;48.928;10.066;2022-07-29T03:14:17;16.40;99.90
8896;DHT22;4484;48.928;10.066;2022-07-29T03:16:47;16.40;99.90
8896;DHT22;4484;48.928;10.066;2022-07-29T03:19:15;16.40;99.90
8896;DHT22;4484;48.928;10.066;2022-07-29T03:21:42;16.30;99.90
8896;DHT22;4484;48.928;10.066;2022-07-29T03:24:09;16.20;99.90
8896;DHT22;4484;48.928;10.066;2022-07-29T03:26:37;16.20;99.90
8896;DHT22;4484;48.928;10.066;2022-07-29T03:29:03;16.10;99.90
8896;DHT22;4484;48.928;10.066;2022-07-29T03:31:31;16.00;99.90
8896;DHT22;4484;48.928;10.066;2022-07-29T03:33:59;15.90;99.90
8896;DHT22;4484;48.928;10.066;2022-07-29T03:36:26;15.90;99.90
8896;DHT22;4484;48.928;10.066;2022-07-29T03:38:53;15.80;99.90
8896;DHT22;4484;48.928;10.066;2022-07-29T03:41:22;15.80;99.90
8896;DHT22;4484;48.928;10.066;2022-07-29T03:43:51;15.70;99.90
8896;DHT22;4484;48.928;10.066;2022-07-29T03:46:22;15.70;99.90
8896;DHT22;4484;48.928;10.066;2022-07-29T03:48:53;15.60;99.90
8896;DHT22;4484;48.928;10.066;2022-07-29T03:51:23;15.60;99.90
8896;DHT22;4484;48.928;10.066;2022-07-29T03:54:01;15.60;99.90
8896;DHT22;4484;48.928;10.066;2022-07-29T03:56:38;15.50;99.90
8896;DHT22;4484;48.928;10.066;2022-07-29T03:59:07;15.60;99.90
8896;DHT22;4484;48.928;10.066;2022-07-29T04:01:34;15.60;99.90
8896;DHT22;4484;48.928;10.066;2022-07-29T04:04:02;15.60;99.90
8896;DHT22;4484;48.928;10.066;2022-07-29T04:06:38;15.60;99.90
8896;DHT22;4484;48.928;10.066;2022-07-29T04:09:05;15.60;99.90
8896;DHT22;4484;48.928;10.066;2022-07-29T04:11:36;15.70;99.90
8896;DHT22;4484;48.928;10.066;2022-07-29T04:14:24;15.70;99.90
8896;DHT22;4484;48.928;10.066;2022-07-29T04:16:51;15.70;99.90
8896;DHT22;4484;48.928;10.066;2022-07-29T04:19:19;15.70;99.90
8896;DHT22;4484;48.928;10.066;2022-07-29T04:21:46;15.80;99.90
8896;DHT22;4484;48.928;10.066;2022-07-29T04:24:13;15.80;99.90
8896;DHT22;4484;48.928;10.066;2022-07-29T04:26:42;15.80;99.90
8896;DHT22;4484;48.928;10.066;2022-07-29T04:29:09;15.90;99.90
8896;DHT22;4484;48.928;10.066;2022-07-29T04:31:35;15.80;99.90
8896;DHT22;4484;48.928;10.066;2022-07-29T04:34:03;15.90;99.90
8896;DHT22;4484;48.928;10.066;2022-07-29T04:36:30;16.00;99.90
8896;DHT22;4484;48.928;10.066;2022-07-29T04:38:57;16.00;99.90
8896;DHT22;4484;48.928;10.066;2022-07-29T04:41:24;16.00;99.90
8896;DHT22;4484;48.928;10.066;2022-07-29T04:43:59;16.10;99.90
8896;DHT22;4484;48.928;10.066;2022-07-29T04:46:33;16.20;99.90
8896;DHT22;4484;48.928;10.066;2022-07-29T04:49:01;16.20;99.90
8896;DHT22;4484;48.928;10.066;2022-07-29T04:51:28;16.20;99.90
8896;DHT22;4484;48.928;10.066;2022-07-29T04:53:55;16.30;99.90
8896;DHT22;4484;48.928;10.066;2022-07-29T04:56:22;16.30;99.90
8896;DHT22;4484;48.928;10.066;2022-07-29T04:58:49;16.30;99.90
8896;DHT22;4484;48.928;10.066;2022-07-29T05:01:16;16.30;99.90
8896;DHT22;4484;48.928;10.066;2022-07-29T05:03:43;16.30;99.90
8896;DHT22;4484;48.928;10.066;2022-07-29T05:06:10;16.40;99.90
8896;DHT22;4484;48.928;10.066;2022-07-29T05:08:37;16.40;99.90
8896;DHT22;4484;48.928;10.066;2022-07-29T05:11:07;16.40;99.90
8896;DHT22;4484;48.928;10.066;2022-07-29T05:13:39;16.50;99.90
8896;DHT22;4484;48.928;10.066;2022-07-29T05:16:13;16.60;99.90
8896;DHT22;4484;48.928;10.066;2022-07-29T05:18:41;16.70;99.90
8896;DHT22;4484;48.928;10.066;2022-07-29T05:21:07;16.70;99.90
8896;DHT22;4484;48.928;10.066;2022-07-29T05:23:34;16.80;99.90
8896;DHT22;4484;48.928;10.066;2022-07-29T05:26:02;16.80;99.90
8896;DHT22;4484;48.928;10.066;2022-07-29T05:28:29;16.90;99.90
8896;DHT22;4484;48.928;10.066;2022-07-29T05:30:59;16.90;99.90
8896;DHT22;4484;48.928;10.066;2022-07-29T05:33:26;16.90;99.90
8896;DHT22;4484;48.928;10.066;2022-07-29T05:36:05;16.90;99.90
8896;DHT22;4484;48.928;10.066;2022-07-29T05:38:37;16.90;99.90
8896;DHT22;4484;48.928;10.066;2022-07-29T05:41:04;17.00;99.90
8896;DHT22;4484;48.928;10.066;2022-07-29T05:43:31;17.00;99.90
8896;DHT22;4484;48.928;10.066;2022-07-29T05:45:59;17.00;99.90
8896;DHT22;4484;48.928;10.066;2022-07-29T05:48:26;17.10;99.90
8896;DHT22;4484;48.928;10.066;2022-07-29T05:50:53;17.10;99.90
8896;DHT22;4484;48.928;10.066;2022-07-29T05:53:20;17.20;99.90
8896;DHT22;4484;48.928;10.066;2022-07-29T05:55:50;17.30;99.90
8896;DHT22;4484;48.928;10.066;2022-07-29T05:58:18;17.30;99.90
8896;DHT22;4484;48.928;10.066;2022-07-29T06:00:45;17.40;99.90
8896;DHT22;4484;48.928;10.066;2022-07-29T06:03:12;17.50;99.90
8896;DHT22;4484;48.928;10.066;2022-07-29T06:05:39;17.60;99.90
8896;DHT22;4484;48.928;10.066;2022-07-29T06:08:06;17.70;99.90
8896;DHT22;4484;48.928;10.066;2022-07-29T06:10:37;17.80;99.90
8896;DHT22;4484;48.928;10.066;2022-07-29T06:13:04;17.90;99.90
8896;DHT22;4484;48.928;10.066;2022-07-29T06:15:31;18.00;99.90
8896;DHT22;4484;48.928;10.066;2022-07-29T06:17:58;18.20;99.90
8896;DHT22;4484;48.928;10.066;2022-07-29T06:20:29;18.30;99.90
8896;DHT22;4484;48.928;10.066;2022-07-29T06:22:57;18.40;99.90
8896;DHT22;4484;48.928;10.066;2022-07-29T06:25:24;18.50;99.90
8896;DHT22;4484;48.928;10.066;2022-07-29T06:27:52;18.50;99.90
8896;DHT22;4484;48.928;10.066;2022-07-29T06:30:19;18.60;99.90
8896;DHT22;4484;48.928;10.066;2022-07-29T06:32:46;18.70;99.90
8896;DHT22;4484;48.928;10.066;2022-07-29T06:35:14;18.80;99.90
8896;DHT22;4484;48.928;10.066;2022-07-29T06:38:01;19.00;99.90
8896;DHT22;4484;48.928;10.066;2022-07-29T06:40:35;19.30;99.90
8896;DHT22;4484;48.928;10.066;2022-07-29T06:43:20;19.60;99.90
8896;DHT22;4484;48.928;10.066;2022-07-29T06:45:48;20.00;99.90
8896;DHT22;4484;48.928;10.066;2022-07-29T06:48:15;20.40;99.90
8896;DHT22;4484;48.928;10.066;2022-07-29T06:50:42;20.90;99.90
8896;DHT22;4484;48.928;10.066;2022-07-29T06:53:08;21.20;99.90
8896;DHT22;4484;48.928;10.066;2022-07-29T06:55:35;21.40;99.90
8896;DHT22;4484;48.928;10.066;2022-07-29T06:58:03;21.50;99.90
8896;DHT22;4484;48.928;10.066;2022-07-29T07:00:30;21.70;99.90
8896;DHT22;4484;48.928;10.066;2022-07-29T07:02:57;21.80;99.90
8896;DHT22;4484;48.928;10.066;2022-07-29T07:05:24;21.70;99.90
8896;DHT22;4484;48.928;10.066;2022-07-29T07:07:51;21.80;99.90
8896;DHT22;4484;48.928;10.066;2022-07-29T07:10:18;21.70;99.90
8896;DHT22;4484;48.928;10.066;2022-07-29T07:12:45;21.60;99.90
8896;DHT22;4484;48.928;10.066;2022-07-29T07:15:12;21.50;99.90
8896;DHT22;4484;48.928;10.066;2022-07-29T07:17:38;21.60;99.90
8896;DHT22;4484;48.928;10.066;2022-07-29T07:20:06;21.80;99.90
8896;DHT22;4484;48.928;10.066;2022-07-29T07:22:34;22.00;99.90
8896;DHT22;4484;48.928;10.066;2022-07-29T07:25:05;22.30;99.90
8896;DHT22;4484;48.928;10.066;2022-07-29T07:27:31;22.80;99.90
8896;DHT22;4484;48.928;10.066;2022-07-29T07:30:00;23.20;99.90
8896;DHT22;4484;48.928;10.066;2022-07-29T07:32:28;23.70;99.90
8896;DHT22;4484;48.928;10.066;2022-07-29T07:34:55;24.30;99.90
8896;DHT22;4484;48.928;10.066;2022-07-29T07:37:22;24.70;99.90
8896;DHT22;4484;48.928;10.066;2022-07-29T07:39:51;25.00;99.90
8896;DHT22;4484;48.928;10.066;2022-07-29T07:42:19;25.20;99.90
8896;DHT22;4484;48.928;10.066;2022-07-29T07:44:46;25.40;99.90
8896;DHT22;4484;48.928;10.066;2022-07-29T07:47:36;25.60;99.90
8896;DHT22;4484;48.928;10.066;2022-07-29T07:50:05;26.00;99.90
8896;DHT22;4484;48.928;10.066;2022-07-29T07:52:32;26.30;99.90
8896;DHT22;4484;48.928;10.066;2022-07-29T07:55:00;26.60;99.90
8896;DHT22;4484;48.928;10.066;2022-07-29T07:57:27;26.80;99.90
8896;DHT22;4484;48.928;10.066;2022-07-29T07:59:54;27.00;99.90
8896;DHT22;4484;48.928;10.066;2022-07-29T08:02:21;27.40;99.90
8896;DHT22;4484;48.928;10.066;2022-07-29T08:04:48;27.70;99.90
8896;DHT22;4484;48.928;10.066;2022-07-29T08:07:15;27.70;99.90
8896;DHT22;4484;48.928;10.066;2022-07-29T08:09:42;28.00;99.90
8896;DHT22;4484;48.928;10.066;2022-07-29T08:12:09;28.40;99.90
8896;DHT22;4484;48.928;10.066;2022-07-29T08:14:36;29.00;99.90
8896;DHT22;4484;48.928;10.066;2022-07-29T08:17:04;29.10;99.70
8896;DHT22;4484;48.928;10.066;2022-07-29T08:19:30;28.90;98.40
8896;DHT22;4484;48.928;10.066;2022-07-29T08:21:57;28.60;98.10
8896;DHT22;4484;48.928;10.066;2022-07-29T08:24:24;28.10;98.00
8896;DHT22;4484;48.928;10.066;2022-07-29T08:27:10;27.80;99.40
8896;DHT22;4484;48.928;10.066;2022-07-29T08:29:57;28.10;99.90
8896;DHT22;4484;48.928;10.066;2022-07-29T08:32:24;28.60;98.20
8896;DHT22;4484;48.928;10.066;2022-07-29T08:35:11;28.60;97.60
8896;DHT22;4484;48.928;10.066;2022-07-29T08:37:38;28.30;97.60
8896;DHT22;4484;48.928;10.066;2022-07-29T08:40:05;27.90;96.50
8896;DHT22;4484;48.928;10.066;2022-07-29T08:42:32;27.70;97.30
8896;DHT22;4484;48.928;10.066;2022-07-29T08:44:59;27.60;96.90
8896;DHT22;4484;48.928;10.066;2022-07-29T08:47:27;27.60;97.20
8896;DHT22;4484;48.928;10.066;2022-07-29T08:49:56;27.70;97.10
8896;DHT22;4484;48.928;10.066;2022-07-29T08:52:25;27.80;97.40
8896;DHT22;4484;48.928;10.066;2022-07-29T08:54:53;27.80;97.20
8896;DHT22;4484;48.928;10.066;2022-07-29T08:57:22;28.00;96.40
8896;DHT22;4484;48.928;10.066;2022-07-29T08:59:52;28.00;95.40
8896;DHT22;4484;48.928;10.066;2022-07-29T09:02:22;27.80;95.60
8896;DHT22;4484;48.928;10.066;2022-07-29T09:04:49;27.90;96.60
8896;DHT22;4484;48.928;10.066;2022-07-29T09:07:17;28.00;96.70
8896;DHT22;4484;48.928;10.066;2022-07-29T09:09:45;28.00;95.80
8896;DHT22;4484;48.928;10.066;2022-07-29T09:12:12;28.10;96.10
8896;DHT22;4484;48.928;10.066;2022-07-29T09:14:58;28.40;96.70
8896;DHT22;4484;48.928;10.066;2022-07-29T09:17:45;28.80;96.40
8896;DHT22;4484;48.928;10.066;2022-07-29T09:20:18;28.90;95.10
8896;DHT22;4484;48.928;10.066;2022-07-29T09:22:49;29.00;95.50
8896;DHT22;4484;48.928;10.066;2022-07-29T09:25:36;29.40;96.00
8896;DHT22;4484;48.928;10.066;2022-07-29T09:28:14;30.00;94.20
8896;DHT22;4484;48.928;10.066;2022-07-29T09:30:56;30.50;92.20
8896;DHT22;4484;48.928;10.066;2022-07-29T09:33:32;30.60;90.10
8896;DHT22;4484;48.928;10.066;2022-07-29T09:36:05;31.00;90.20
8896;DHT22;4484;48.928;10.066;2022-07-29T09:38:33;31.20;89.70
8896;DHT22;4484;48.928;10.066;2022-07-29T09:41:03;31.30;86.40
8896;DHT22;4484;48.928;10.066;2022-07-29T09:43:32;31.60;85.70
8896;DHT22;4484;48.928;10.066;2022-07-29T09:46:12;31.70;85.50
8896;DHT22;4484;48.928;10.066;2022-07-29T09:48:40;31.90;85.50
8896;DHT22;4484;48.928;10.066;2022-07-29T09:51:20;31.90;84.30
8896;DHT22;4484;48.928;10.066;2022-07-29T09:54:24;32.20;84.40
8896;DHT22;4484;48.928;10.066;2022-07-29T09:56:54;32.50;83.00
8896;DHT22;4484;48.928;10.066;2022-07-29T09:59:24;32.40;80.20
8896;DHT22;4484;48.928;10.066;2022-07-29T10:01:53;32.50;79.60
8896;DHT22;4484;48.928;10.066;2022-07-29T10:04:20;32.60;81.00
8896;DHT22;4484;48.928;10.066;2022-07-29T10:07:07;32.40;77.70
8896;DHT22;4484;48.928;10.066;2022-07-29T10:09:35;32.20;79.00
8896;DHT22;4484;48.928;10.066;2022-07-29T10:12:13;31.90;80.60
8896;DHT22;4484;48.928;10.066;2022-07-29T10:14:42;31.70;78.20
8896;DHT22;4484;48.928;10.066;2022-07-29T10:17:10;31.20;77.60
8896;DHT22;4484;48.928;10.066;2022-07-29T10:19:38;30.80;78.90
8896;DHT22;4484;48.928;10.066;2022-07-29T10:22:07;30.80;79.60
8896;DHT22;4484;48.928;10.066;2022-07-29T10:24:36;30.90;80.00
8896;DHT22;4484;48.928;10.066;2022-07-29T10:27:07;31.40;82.50
8896;DHT22;4484;48.928;10.066;2022-07-29T10:29:34;32.00;79.10
8896;DHT22;4484;48.928;10.066;2022-07-29T10:35:13;32.50;78.30
8896;DHT22;4484;48.928;10.066;2022-07-29T10:41:11;32.90;77.70
8896;DHT22;4484;48.928;10.066;2022-07-29T10:44:14;33.00;72.90
8896;DHT22;4484;48.928;10.066;2022-07-29T10:46:45;33.70;74.50
8896;DHT22;4484;48.928;10.066;2022-07-29T10:54:38;34.90;66.00
8896;DHT22;4484;48.928;10.066;2022-07-29T10:57:28;34.30;65.90
8896;DHT22;4484;48.928;10.066;2022-07-29T11:00:28;34.10;66.50
8896;DHT22;4484;48.928;10.066;2022-07-29T11:02:57;33.70;65.90
8896;DHT22;4484;48.928;10.066;2022-07-29T11:05:26;33.10;66.50
8896;DHT22;4484;48.928;10.066;2022-07-29T11:13:49;32.70;68.00
8896;DHT22;4484;48.928;10.066;2022-07-29T11:16:20;32.90;68.90
8896;DHT22;4484;48.928;10.066;2022-07-29T11:21:41;33.40;69.90
8896;DHT22;4484;48.928;10.066;2022-07-29T11:24:23;33.40;67.40
8896;DHT22;4484;48.928;10.066;2022-07-29T11:27:16;33.80;66.90
8896;DHT22;4484;48.928;10.066;2022-07-29T11:29:57;33.90;66.40
8896;DHT22;4484;48.928;10.066;2022-07-29T11:32:36;34.00;63.90
8896;DHT22;4484;48.928;10.066;2022-07-29T11:43:57;32.80;66.50
8896;DHT22;4484;48.928;10.066;2022-07-29T11:46:50;32.60;65.50
8896;DHT22;4484;48.928;10.066;2022-07-29T11:49:24;32.20;67.20
8896;DHT22;4484;48.928;10.066;2022-07-29T11:51:59;31.80;69.20
8896;DHT22;4484;48.928;10.066;2022-07-29T11:54:34;31.60;69.60
8896;DHT22;4484;48.928;10.066;2022-07-29T11:57:22;31.40;70.20
8896;DHT22;4484;48.928;10.066;2022-07-29T12:00:06;31.20;71.40
8896;DHT22;4484;48.928;10.066;2022-07-29T12:02:56;31.00;72.10
8896;DHT22;4484;48.928;10.066;2022-07-29T12:05:37;30.70;72.50
8896;DHT22;4484;48.928;10.066;2022-07-29T12:08:16;30.20;73.90
8896;DHT22;4484;48.928;10.066;2022-07-29T12:10:49;30.00;74.90
8896;DHT22;4484;48.928;10.066;2022-07-29T12:13:18;29.70;74.80
8896;DHT22;4484;48.928;10.066;2022-07-29T12:15:55;29.40;75.70
8896;DHT22;4484;48.928;10.066;2022-07-29T12:18:25;29.00;77.40
8896;DHT22;4484;48.928;10.066;2022-07-29T12:21:01;28.70;78.60
8896;DHT22;4484;48.928;10.066;2022-07-29T12:23:33;28.50;78.60
8896;DHT22;4484;48.928;10.066;2022-07-29T12:26:05;28.20;79.60
8896;DHT22;4484;48.928;10.066;2022-07-29T12:28:37;28.00;80.00
8896;DHT22;4484;48.928;10.066;2022-07-29T12:31:05;27.70;81.40
8896;DHT22;4484;48.928;10.066;2022-07-29T12:33:33;27.50;82.90
8896;DHT22;4484;48.928;10.066;2022-07-29T12:36:02;27.30;83.30
8896;DHT22;4484;48.928;10.066;2022-07-29T12:38:40;27.10;83.40
8896;DHT22;4484;48.928;10.066;2022-07-29T12:41:07;26.90;84.10
8896;DHT22;4484;48.928;10.066;2022-07-29T12:43:34;26.80;84.10
8896;DHT22;4484;48.928;10.066;2022-07-29T12:46:12;26.60;85.60
8896;DHT22;4484;48.928;10.066;2022-07-29T12:48:41;26.60;86.10
8896;DHT22;4484;48.928;10.066;2022-07-29T12:51:09;26.50;87.20
8896;DHT22;4484;48.928;10.066;2022-07-29T12:53:38;26.40;87.30
8896;DHT22;4484;48.928;10.066;2022-07-29T12:56:06;26.30;87.40
8896;DHT22;4484;48.928;10.066;2022-07-29T12:58:53;26.30;87.30
8896;DHT22;4484;48.928;10.066;2022-07-29T13:01:20;26.20;88.30
8896;DHT22;4484;48.928;10.066;2022-07-29T13:06:34;26.00;89.80
8896;DHT22;4484;48.928;10.066;2022-07-29T13:09:13;25.90;90.10
8896;DHT22;4484;48.928;10.066;2022-07-29T13:11:51;25.80;91.30
8896;DHT22;4484;48.928;10.066;2022-07-29T13:17:21;25.60;93.20
8896;DHT22;4484;48.928;10.066;2022-07-29T13:20:07;25.70;93.10
8896;DHT22;4484;48.928;10.066;2022-07-29T13:22:35;25.80;93.60
8896;DHT22;4484;48.928;10.066;2022-07-29T13:25:02;26.00;93.80
8896;DHT22;4484;48.928;10.066;2022-07-29T13:27:32;26.10;93.30
8896;DHT22;4484;48.928;10.066;2022-07-29T13:30:00;26.20;93.70
8896;DHT22;4484;48.928;10.066;2022-07-29T13:32:30;26.40;92.40
8896;DHT22;4484;48.928;10.066;2022-07-29T13:34:59;26.50;91.20
8896;DHT22;4484;48.928;10.066;2022-07-29T13:37:32;26.60;90.40
8896;DHT22;4484;48.928;10.066;2022-07-29T13:40:02;26.60;89.50
8896;DHT22;4484;48.928;10.066;2022-07-29T13:42:30;26.90;88.30
8896;DHT22;4484;48.928;10.066;2022-07-29T13:44:57;27.20;87.60
8896;DHT22;4484;48.928;10.066;2022-07-29T13:47:24;27.30;85.60
8896;DHT22;4484;48.928;10.066;2022-07-29T13:49:59;27.40;86.90
8896;DHT22;4484;48.928;10.066;2022-07-29T13:52:26;27.60;86.80
8896;DHT22;4484;48.928;10.066;2022-07-29T13:54:53;27.70;86.50
8896;DHT22;4484;48.928;10.066;2022-07-29T13:57:20;27.60;86.60
8896;DHT22;4484;48.928;10.066;2022-07-29T13:59:47;27.40;91.60
8896;DHT22;4484;48.928;10.066;2022-07-29T14:02:20;27.30;92.20
8896;DHT22;4484;48.928;10.066;2022-07-29T14:04:54;27.10;91.90
8896;DHT22;4484;48.928;10.066;2022-07-29T14:07:22;26.90;92.70
8896;DHT22;4484;48.928;10.066;2022-07-29T14:09:49;26.80;93.20
8896;DHT22;4484;48.928;10.066;2022-07-29T14:12:17;26.70;93.30
8896;DHT22;4484;48.928;10.066;2022-07-29T14:14:44;26.50;93.80
8896;DHT22;4484;48.928;10.066;2022-07-29T14:17:15;26.20;94.00
8896;DHT22;4484;48.928;10.066;2022-07-29T14:19:42;25.80;93.30
8896;DHT22;4484;48.928;10.066;2022-07-29T14:22:09;25.60;93.40
8896;DHT22;4484;48.928;10.066;2022-07-29T14:24:37;25.40;91.90
8896;DHT22;4484;48.928;10.066;2022-07-29T14:27:05;25.30;92.10
8896;DHT22;4484;48.928;10.066;2022-07-29T14:29:33;25.10;90.90
8896;DHT22;4484;48.928;10.066;2022-07-29T14:32:05;25.00;91.40
8896;DHT22;4484;48.928;10.066;2022-07-29T14:34:35;24.90;90.70
8896;DHT22;4484;48.928;10.066;2022-07-29T14:37:03;24.80;89.40
8896;DHT22;4484;48.928;10.066;2022-07-29T14:39:32;24.80;87.60
8896;DHT22;4484;48.928;10.066;2022-07-29T14:42:04;24.70;88.30
8896;DHT22;4484;48.928;10.066;2022-07-29T14:44:30;24.60;89.40
8896;DHT22;4484;48.928;10.066;2022-07-29T14:47:01;24.50;88.80
8896;DHT22;4484;48.928;10.066;2022-07-29T14:49:34;24.50;89.30
8896;DHT22;4484;48.928;10.066;2022-07-29T14:52:01;24.40;89.60
8896;DHT22;4484;48.928;10.066;2022-07-29T14:54:28;24.30;90.20
8896;DHT22;4484;48.928;10.066;2022-07-29T14:56:55;24.30;90.70
8896;DHT22;4484;48.928;10.066;2022-07-29T14:59:24;24.10;91.00
8896;DHT22;4484;48.928;10.066;2022-07-29T15:01:51;24.10;91.00
8896;DHT22;4484;48.928;10.066;2022-07-29T15:04:18;24.10;91.20
8896;DHT22;4484;48.928;10.066;2022-07-29T15:06:45;24.10;91.40
8896;DHT22;4484;48.928;10.066;2022-07-29T15:09:12;24.00;91.30
8896;DHT22;4484;48.928;10.066;2022-07-29T15:11:39;23.90;91.40
8896;DHT22;4484;48.928;10.066;2022-07-29T15:14:06;23.90;91.80
8896;DHT22;4484;48.928;10.066;2022-07-29T15:16:35;23.90;91.60
8896;DHT22;4484;48.928;10.066;2022-07-29T15:19:03;23.80;91.70
8896;DHT22;4484;48.928;10.066;2022-07-29T15:21:30;23.80;91.70
8896;DHT22;4484;48.928;10.066;2022-07-29T15:23:56;23.70;91.30
8896;DHT22;4484;48.928;10.066;2022-07-29T15:26:23;23.60;91.70
8896;DHT22;4484;48.928;10.066;2022-07-29T15:28:50;23.50;91.80
8896;DHT22;4484;48.928;10.066;2022-07-29T15:31:17;23.40;91.50
8896;DHT22;4484;48.928;10.066;2022-07-29T15:33:45;23.30;91.90
8896;DHT22;4484;48.928;10.066;2022-07-29T15:36:12;23.10;92.30
8896;DHT22;4484;48.928;10.066;2022-07-29T15:38:59;23.10;92.70
8896;DHT22;4484;48.928;10.066;2022-07-29T15:41:26;23.10;92.70
8896;DHT22;4484;48.928;10.066;2022-07-29T15:43:53;23.10;92.70
8896;DHT22;4484;48.928;10.066;2022-07-29T15:46:20;23.00;93.00
8896;DHT22;4484;48.928;10.066;2022-07-29T15:49:06;23.00;93.40
8896;DHT22;4484;48.928;10.066;2022-07-29T15:51:33;23.00;93.70
8896;DHT22;4484;48.928;10.066;2022-07-29T15:54:02;23.00;94.00
8896;DHT22;4484;48.928;10.066;2022-07-29T15:56:29;23.00;94.00
8896;DHT22;4484;48.928;10.066;2022-07-29T15:58:57;22.90;94.20
8896;DHT22;4484;48.928;10.066;2022-07-29T16:01:24;22.90;94.50
8896;DHT22;4484;48.928;10.066;2022-07-29T16:03:51;22.80;94.90
8896;DHT22;4484;48.928;10.066;2022-07-29T16:06:18;22.90;94.90
8896;DHT22;4484;48.928;10.066;2022-07-29T16:08:45;22.90;94.70
8896;DHT22;4484;48.928;10.066;2022-07-29T16:11:12;22.80;95.00
8896;DHT22;4484;48.928;10.066;2022-07-29T16:13:39;22.80;95.00
8896;DHT22;4484;48.928;10.066;2022-07-29T16:16:06;22.80;95.30
8896;DHT22;4484;48.928;10.066;2022-07-29T16:18:34;22.80;95.60
8896;DHT22;4484;48.928;10.066;2022-07-29T16:21:00;22.70;95.60
8896;DHT22;4484;48.928;10.066;2022-07-29T16:23:27;22.70;96.10
8896;DHT22;4484;48.928;10.066;2022-07-29T16:25:54;22.70;96.40
8896;DHT22;4484;48.928;10.066;2022-07-29T16:28:27;22.60;96.60
8896;DHT22;4484;48.928;10.066;2022-07-29T16:30:54;22.60;97.20
8896;DHT22;4484;48.928;10.066;2022-07-29T16:33:21;22.50;97.30
8896;DHT22;4484;48.928;10.066;2022-07-29T16:35:50;22.50;97.60
8896;DHT22;4484;48.928;10.066;2022-07-29T16:38:17;22.40;97.70
8896;DHT22;4484;48.928;10.066;2022-07-29T16:40:45;22.40;97.90
8896;DHT22;4484;48.928;10.066;2022-07-29T16:43:12;22.40;98.50
8896;DHT22;4484;48.928;10.066;2022-07-29T16:45:39;22.40;98.80
8896;DHT22;4484;48.928;10.066;2022-07-29T16:48:14;22.50;99.30
8896;DHT22;4484;48.928;10.066;2022-07-29T16:50:44;22.50;99.10